Terminal Aerodrome Forecast
Issued by NWS Portland, ME

Home | Current Version | Previous Version | Text Only | Print | Product List | Glossary On
Versions: 1 2 3 4 5 6 7 8 9 10 11 12 13 14 15 16 17 18
000
FTUS41 KGYX 230520
TAFCON
TAF
KCON 230520Z 2306/2406 31012KT P6SM SCT070 BKN100
     FM231300 31014G24KT P6SM SKC
     FM232300 27005KT P6SM SKC=

USA.gov is the U.S. government's official web portal to all federal, state and local government web resources and services.